createdAt,value
2023-02-05T00:00:19.760Z,56.98
2023-02-05T00:03:07.723Z,57.61
2023-02-05T00:05:35.865Z,58.24
2023-02-05T00:08:03.970Z,59.37
2023-02-05T00:10:31.931Z,60.22
2023-02-05T00:12:59.773Z,60.82
2023-02-05T00:15:27.999Z,61.45
2023-02-05T00:17:55.945Z,61.90
2023-02-05T00:20:23.892Z,65.41
2023-02-05T00:22:51.774Z,69.18
2023-02-05T00:25:19.687Z,66.64
2023-02-05T00:27:47.698Z,65.13
2023-02-05T00:30:15.623Z,63.26
2023-02-05T00:32:43.630Z,61.96
2023-02-05T00:35:11.714Z,61.38
2023-02-05T00:37:39.765Z,61.10
2023-02-05T00:40:08.014Z,60.46
2023-02-05T00:42:36.175Z,60.39
2023-02-05T00:45:04.377Z,60.15
2023-02-05T00:47:32.312Z,59.12
2023-02-05T00:50:00.242Z,56.93
2023-02-05T00:52:28.135Z,56.74
2023-02-05T00:54:56.088Z,57.25
2023-02-05T00:57:24.815Z,58.36
2023-02-05T00:59:53.873Z,58.77
2023-02-05T01:02:24.073Z,59.87
2023-02-05T01:04:52.809Z,60.23
2023-02-05T01:07:20.912Z,60.68
2023-02-05T01:09:49.645Z,61.35
2023-02-05T01:12:17.618Z,62.71
2023-02-05T01:14:45.863Z,65.18
2023-02-05T01:17:13.942Z,65.52
2023-02-05T01:19:41.991Z,64.82
2023-02-05T01:22:11.579Z,64.19
2023-02-05T01:24:39.884Z,63.42
2023-02-05T01:27:07.869Z,62.54
2023-02-05T01:29:35.885Z,61.97
2023-02-05T01:32:04.283Z,61.11
2023-02-05T01:34:32.296Z,60.55
2023-02-05T01:37:00.262Z,60.40
2023-02-05T01:39:28.203Z,58.43
2023-02-05T01:41:56.545Z,56.97
2023-02-05T01:44:25.286Z,57.26
2023-02-05T01:46:55.293Z,57.77
2023-02-05T01:49:43.821Z,58.47
2023-02-05T01:52:17.001Z,59.09
2023-02-05T01:54:48.841Z,60.08
2023-02-05T01:57:24.813Z,61.37
2023-02-05T01:59:53.360Z,65.61
2023-02-05T02:02:21.511Z,69.42
2023-02-05T02:04:55.830Z,65.16
2023-02-05T02:07:25.300Z,62.20
2023-02-05T02:09:55.817Z,60.98
2023-02-05T02:12:28.903Z,58.89
2023-02-05T02:15:01.154Z,56.57
2023-02-05T02:17:34.560Z,56.98
2023-02-05T02:20:06.955Z,57.50
2023-02-05T02:22:48.200Z,58.11
2023-02-05T02:25:38.828Z,58.51
2023-02-05T02:28:29.047Z,59.14
2023-02-05T02:31:12.605Z,60.03
2023-02-05T02:34:00.517Z,61.04
2023-02-05T02:36:47.721Z,61.67
2023-02-05T02:39:44.633Z,63.98
2023-02-05T02:42:18.831Z,68.98
2023-02-05T02:44:54.010Z,68.06
2023-02-05T02:47:25.840Z,65.36
2023-02-05T02:50:02.234Z,63.89
2023-02-05T02:52:36.431Z,63.58
2023-02-05T02:55:09.600Z,62.69
2023-02-05T02:57:44.851Z,56.12
2023-02-05T03:00:23.253Z,51.38
2023-02-05T03:03:01.350Z,51.83
2023-02-05T03:05:33.736Z,52.65
2023-02-05T03:08:20.876Z,53.41
2023-02-05T03:11:04.892Z,54.75
2023-02-05T03:13:36.862Z,55.98
2023-02-05T03:16:08.790Z,56.80
2023-02-05T03:18:39.886Z,57.98
2023-02-05T03:21:31.913Z,58.05
2023-02-05T03:24:03.908Z,59.24
2023-02-05T03:26:36.904Z,59.64
2023-02-05T03:29:16.319Z,60.64
2023-02-05T03:32:42.908Z,61.20
2023-02-05T03:36:00.902Z,63.63
2023-02-05T03:39:36.907Z,65.54
2023-02-05T03:42:34.937Z,63.32
2023-02-05T03:45:32.089Z,61.95
2023-02-05T03:48:39.681Z,60.97
2023-02-05T03:51:37.415Z,59.49
2023-02-05T03:54:23.946Z,56.38
2023-02-05T04:04:27.511Z,58.06
2023-02-05T04:06:57.218Z,58.38
2023-02-05T04:09:25.403Z,58.76
2023-02-05T04:11:54.074Z,59.34
2023-02-05T04:14:22.080Z,60.43
2023-02-05T04:16:50.220Z,61.03
2023-02-05T04:19:19.414Z,60.81
2023-02-05T04:21:47.895Z,62.02
2023-02-05T04:24:16.252Z,63.49
2023-02-05T04:26:45.373Z,66.98
2023-02-05T04:29:13.748Z,66.46
2023-02-05T04:31:45.255Z,65.35
2023-02-05T04:34:13.690Z,62.35
2023-02-05T04:36:42.087Z,59.91
2023-02-05T04:39:10.332Z,56.11
2023-02-05T04:41:38.406Z,53.92
2023-02-05T04:44:07.016Z,53.88
2023-02-05T04:46:35.261Z,55.67
2023-02-05T04:49:03.488Z,56.80
2023-02-05T04:51:31.519Z,57.71
2023-02-05T04:53:59.582Z,58.13
2023-02-05T04:56:28.264Z,58.67
2023-02-05T04:58:56.459Z,60.17
2023-02-05T05:01:24.507Z,60.13
2023-02-05T05:03:52.686Z,60.84
2023-02-05T05:06:20.960Z,61.63
2023-02-05T05:08:49.028Z,61.99
2023-02-05T05:11:19.695Z,63.69
2023-02-05T05:13:49.591Z,66.52
2023-02-05T05:16:18.418Z,68.39
2023-02-05T05:18:46.497Z,70.44
2023-02-05T05:21:14.617Z,66.36
2023-02-05T05:23:42.947Z,55.84
2023-02-05T05:26:12.487Z,50.72
2023-02-05T05:28:40.766Z,50.10
2023-02-05T05:31:17.334Z,51.70
2023-02-05T05:33:46.045Z,52.18
2023-02-05T05:36:14.626Z,53.97
2023-02-05T05:38:43.842Z,55.48
2023-02-05T05:41:41.091Z,57.17
2023-02-05T05:44:10.364Z,57.40
2023-02-05T05:46:38.528Z,58.03
2023-02-05T05:49:06.706Z,59.45
2023-02-05T05:51:34.804Z,60.26
2023-02-05T05:54:02.954Z,60.76
2023-02-05T05:56:31.023Z,60.66
2023-02-05T05:58:59.074Z,61.26
2023-02-05T06:01:27.773Z,61.48
2023-02-05T06:03:56.059Z,63.07
2023-02-05T06:06:24.223Z,67.86
2023-02-05T06:08:52.288Z,65.85
2023-02-05T06:11:20.359Z,63.34
2023-02-05T06:13:48.431Z,61.31
2023-02-05T06:16:16.562Z,59.28
2023-02-05T06:18:44.790Z,56.90
2023-02-05T06:21:12.877Z,56.82
2023-02-05T06:23:40.927Z,57.62
2023-02-05T06:26:09.031Z,57.95
2023-02-05T06:28:37.164Z,58.90
2023-02-05T06:31:05.714Z,58.79
2023-02-05T06:33:33.922Z,60.13
2023-02-05T06:36:02.098Z,60.98
2023-02-05T06:38:30.374Z,60.93
2023-02-05T06:40:58.464Z,61.16
2023-02-05T06:43:26.653Z,63.58
2023-02-05T06:45:55.925Z,67.37
2023-02-05T06:48:23.984Z,68.63
2023-02-05T06:50:52.064Z,68.36
2023-02-05T06:53:20.242Z,64.45
2023-02-05T06:55:48.410Z,58.85
2023-02-05T06:58:16.397Z,51.46
2023-02-05T07:00:44.312Z,51.31
2023-02-05T07:03:12.310Z,51.85
2023-02-05T07:05:40.836Z,52.95
2023-02-05T07:08:09.177Z,53.75
2023-02-05T07:10:37.347Z,54.73
2023-02-05T07:13:06.077Z,56.42
2023-02-05T07:15:37.684Z,57.11
2023-02-05T07:18:06.783Z,58.65
2023-02-05T07:20:34.977Z,58.92
2023-02-05T07:23:03.130Z,59.90
2023-02-05T07:25:36.646Z,60.71
2023-02-05T07:28:06.902Z,62.20
2023-02-05T07:30:36.377Z,65.50
2023-02-05T07:33:04.942Z,65.93
2023-02-05T07:35:37.345Z,63.26
2023-02-05T07:38:06.622Z,59.98
2023-02-05T07:40:34.756Z,55.81
2023-02-05T07:43:02.798Z,54.84
2023-02-05T07:45:30.917Z,55.20
2023-02-05T07:47:59.014Z,56.34
2023-02-05T07:50:26.960Z,57.75
2023-02-05T07:52:55.193Z,58.16
2023-02-05T07:55:23.510Z,58.67
2023-02-05T07:57:51.482Z,59.89
2023-02-05T08:00:20.021Z,60.10
2023-02-05T08:02:48.152Z,60.84
2023-02-05T08:05:16.243Z,62.04
2023-02-05T08:07:44.221Z,63.64
2023-02-05T08:10:14.785Z,64.79
2023-02-05T08:12:42.715Z,63.13
2023-02-05T08:15:11.113Z,60.78
2023-02-05T08:17:39.036Z,57.16
2023-02-05T08:20:07.903Z,57.26
2023-02-05T08:22:38.553Z,58.13
2023-02-05T08:25:09.229Z,58.60
2023-02-05T08:27:38.060Z,58.99
2023-02-05T08:30:09.122Z,59.75
2023-02-05T08:32:37.185Z,60.12
2023-02-05T08:35:06.060Z,61.22
2023-02-05T08:37:34.804Z,65.12
2023-02-05T08:40:02.916Z,64.52
2023-02-05T08:42:30.890Z,60.45
2023-02-05T08:45:00.118Z,56.97
2023-02-05T08:47:28.293Z,55.41
2023-02-05T08:49:56.430Z,56.86
2023-02-05T08:52:24.401Z,58.04
2023-02-05T08:54:52.619Z,58.40
2023-02-05T08:57:20.543Z,59.62
2023-02-05T08:59:48.717Z,59.11
2023-02-05T09:02:16.831Z,59.27
2023-02-05T09:04:45.091Z,59.49
2023-02-05T09:07:13.133Z,60.39
2023-02-05T09:09:41.409Z,60.35
2023-02-05T09:12:10.918Z,60.21
2023-02-05T09:14:39.595Z,60.75
2023-02-05T09:17:09.567Z,59.97
2023-02-05T09:19:39.736Z,60.17
2023-02-05T09:22:09.073Z,60.53
2023-02-05T09:24:37.984Z,60.38
2023-02-05T09:27:06.749Z,62.75
2023-02-05T09:29:34.988Z,62.24
2023-02-05T09:32:03.062Z,59.43
2023-02-05T09:34:32.482Z,55.70
2023-02-05T09:37:00.492Z,54.28
2023-02-05T09:40:12.296Z,55.06
2023-02-05T09:42:21.409Z,55.07
2023-02-05T09:45:02.026Z,55.22
2023-02-05T09:47:36.853Z,56.40
2023-02-05T09:50:26.155Z,55.47
2023-02-05T09:52:59.941Z,55.20
2023-02-05T09:55:31.446Z,55.24
2023-02-05T09:58:04.874Z,56.02
2023-02-05T10:01:14.983Z,56.53
2023-02-05T10:03:56.305Z,57.16
2023-02-05T10:06:39.843Z,57.45
2023-02-05T10:09:24.684Z,57.29
2023-02-05T10:11:57.107Z,57.20
2023-02-05T10:14:31.515Z,57.15
2023-02-05T10:17:21.991Z,57.40
2023-02-05T10:20:23.396Z,57.58
2023-02-05T10:23:29.354Z,57.89
2023-02-05T10:26:14.165Z,57.25
2023-02-05T10:29:16.484Z,56.93
2023-02-05T10:32:03.969Z,57.61
2023-02-05T10:34:42.018Z,56.78
2023-02-05T10:37:18.718Z,56.69
2023-02-05T10:39:49.630Z,56.42
2023-02-05T10:42:17.552Z,55.97
2023-02-05T10:44:49.311Z,57.16
2023-02-05T10:47:25.404Z,56.08
2023-02-05T10:50:46.190Z,56.13
2023-02-05T10:53:18.138Z,54.20
2023-02-05T10:55:46.264Z,54.28
2023-02-05T10:58:38.105Z,54.95
2023-02-05T11:01:20.203Z,54.73
2023-02-05T11:03:52.253Z,56.05
2023-02-05T11:06:22.149Z,57.54
2023-02-05T11:08:50.394Z,56.92
2023-02-05T11:11:25.142Z,55.66
2023-02-05T11:14:21.056Z,54.73
2023-02-05T11:16:49.114Z,54.94
2023-02-05T11:19:27.097Z,55.14
2023-02-05T11:21:57.749Z,55.54
2023-02-05T11:24:25.819Z,55.24
2023-02-05T11:27:26.510Z,55.02
2023-02-05T11:29:57.063Z,54.29
2023-02-05T11:32:37.542Z,55.31
2023-02-05T11:35:25.894Z,53.59
2023-02-05T11:38:06.719Z,53.91
2023-02-05T11:40:36.404Z,55.60
2023-02-05T11:43:16.233Z,54.70
2023-02-05T11:45:51.080Z,53.99
2023-02-05T11:48:37.773Z,54.70
2023-02-05T11:51:10.136Z,54.40
2023-02-05T11:53:44.369Z,53.84
2023-02-05T11:56:21.476Z,53.99
2023-02-05T11:59:01.814Z,54.27
2023-02-05T12:01:34.027Z,56.15
2023-02-05T12:04:11.301Z,55.62
2023-02-05T12:06:53.521Z,54.02
2023-02-05T12:09:24.242Z,54.53
2023-02-05T12:12:38.564Z,55.82
2023-02-05T12:23:00.515Z,54.76
2023-02-05T12:25:42.582Z,55.48
2023-02-05T12:28:34.946Z,54.21
2023-02-05T12:31:17.210Z,54.22
2023-02-05T12:34:00.346Z,56.44
2023-02-05T12:36:59.210Z,57.95
2023-02-05T12:39:27.244Z,57.91
2023-02-05T12:42:13.335Z,58.20
2023-02-05T12:44:51.848Z,58.62
2023-02-05T12:47:41.939Z,59.50
2023-02-05T12:50:32.297Z,59.29
2023-02-05T12:53:18.624Z,59.32
2023-02-05T12:56:06.977Z,59.42
2023-02-05T12:58:43.553Z,59.02
2023-02-05T13:01:18.181Z,59.29
2023-02-05T13:03:51.638Z,58.85
2023-02-05T13:06:42.438Z,59.11
2023-02-05T13:09:20.742Z,59.32
2023-02-05T13:12:01.024Z,58.72
2023-02-05T13:14:40.479Z,59.22
2023-02-05T13:17:17.406Z,58.70
2023-02-05T13:19:51.832Z,58.40
2023-02-05T13:22:44.320Z,59.12
2023-02-05T13:25:38.226Z,58.07
2023-02-05T13:28:38.626Z,58.67
2023-02-05T13:31:17.406Z,58.34
2023-02-05T13:33:45.755Z,58.27
2023-02-05T13:36:40.832Z,58.63
2023-02-05T13:39:34.306Z,59.11
2023-02-05T13:42:06.459Z,59.28
2023-02-05T13:44:55.937Z,59.57
2023-02-05T13:47:42.027Z,59.13
2023-02-05T13:50:28.364Z,59.07
2023-02-05T13:53:13.945Z,59.38
2023-02-05T13:56:10.650Z,59.31
2023-02-05T13:59:04.988Z,59.37
2023-02-05T14:01:42.757Z,59.27
2023-02-05T14:04:19.202Z,59.75
2023-02-05T14:07:18.002Z,59.57
2023-02-05T14:10:01.139Z,58.15
2023-02-05T14:12:35.637Z,57.48
2023-02-05T14:15:16.440Z,57.87
2023-02-05T14:17:44.398Z,58.00
2023-02-05T14:20:24.346Z,58.51
2023-02-05T14:23:03.665Z,58.84
2023-02-05T14:25:46.276Z,58.60
2023-02-05T14:28:17.866Z,58.64
2023-02-05T14:30:59.447Z,58.51
2023-02-05T14:33:35.658Z,58.24
2023-02-05T14:36:16.181Z,58.39
2023-02-05T14:38:59.502Z,57.99
2023-02-05T14:41:42.091Z,58.00
2023-02-05T14:44:13.057Z,58.42
2023-02-05T14:46:52.525Z,58.59
2023-02-05T14:49:28.530Z,58.59
2023-02-05T14:52:03.492Z,58.87
2023-02-05T14:54:42.463Z,59.21
2023-02-05T14:57:26.632Z,59.58
2023-02-05T15:00:00.022Z,59.78
2023-02-05T15:03:05.160Z,59.73
2023-02-05T15:05:37.054Z,59.46
2023-02-05T15:08:21.568Z,59.68
2023-02-05T15:11:03.375Z,59.56
2023-02-05T15:13:32.382Z,59.54
2023-02-05T15:16:12.464Z,59.99
2023-02-05T15:18:51.872Z,60.30
2023-02-05T15:21:19.819Z,60.21
2023-02-05T15:23:53.708Z,60.26
2023-02-05T15:26:39.414Z,60.09
2023-02-05T15:29:16.800Z,59.61
2023-02-05T15:32:36.378Z,59.96
2023-02-05T15:35:10.820Z,59.59
2023-02-05T15:37:45.359Z,60.04
2023-02-05T15:40:25.111Z,60.24
2023-02-05T15:42:59.486Z,60.26
2023-02-05T15:45:27.559Z,60.63
2023-02-05T15:47:59.931Z,60.65
2023-02-05T15:50:30.574Z,60.00
2023-02-05T15:52:59.757Z,60.18
2023-02-05T15:55:29.231Z,60.54
2023-02-05T15:58:04.743Z,60.69
2023-02-05T16:00:37.923Z,60.19
2023-02-05T16:03:06.951Z,60.25
2023-02-05T16:05:35.438Z,60.65
2023-02-05T16:08:05.690Z,60.86
2023-02-05T16:10:35.134Z,60.97
2023-02-05T16:13:06.184Z,60.89
2023-02-05T16:15:43.383Z,61.07
2023-02-05T16:18:19.102Z,60.72
2023-02-05T16:20:53.620Z,59.55
2023-02-05T16:23:44.672Z,60.33
2023-02-05T16:26:21.784Z,60.44
2023-02-05T16:28:58.277Z,60.51
2023-02-05T16:31:28.359Z,60.75
2023-02-05T16:34:04.245Z,60.92
2023-02-05T16:36:37.105Z,60.86
2023-02-05T16:39:16.848Z,60.30
2023-02-05T16:41:45.575Z,59.81
2023-02-05T16:44:30.219Z,59.75
2023-02-05T16:47:18.167Z,60.01
2023-02-05T16:49:48.479Z,59.67
2023-02-05T16:52:32.026Z,59.87
2023-02-05T16:55:29.038Z,59.78
2023-02-05T16:58:05.560Z,60.09
2023-02-05T17:00:34.492Z,60.11
2023-02-05T17:03:16.502Z,59.97
2023-02-05T17:05:44.981Z,59.45
2023-02-05T17:08:13.057Z,59.94
2023-02-05T17:10:55.359Z,60.04
2023-02-05T17:13:44.569Z,60.06
2023-02-05T17:16:32.770Z,60.11
2023-02-05T17:19:04.636Z,60.37
2023-02-05T17:21:34.960Z,60.37
2023-02-05T17:24:09.392Z,60.58
2023-02-05T17:26:41.062Z,60.85
2023-02-05T17:29:15.825Z,60.91
2023-02-05T17:31:44.258Z,60.48
2023-02-05T17:34:16.161Z,60.76
2023-02-05T17:36:45.112Z,60.83
2023-02-05T17:39:13.257Z,60.87
2023-02-05T17:42:00.482Z,60.83
2023-02-05T17:44:28.713Z,60.93
2023-02-05T17:46:59.162Z,61.22
2023-02-05T17:49:27.604Z,61.23
2023-02-05T17:51:55.951Z,61.18
2023-02-05T17:54:25.734Z,61.34
2023-02-05T17:56:56.937Z,61.51
2023-02-05T17:59:26.266Z,61.31
2023-02-05T18:01:54.530Z,60.97
2023-02-05T18:04:22.752Z,61.28
2023-02-05T18:06:51.025Z,61.56
2023-02-05T18:09:20.133Z,61.38
2023-02-05T18:11:48.291Z,61.24
2023-02-05T18:14:16.292Z,61.33
2023-02-05T18:16:44.921Z,61.25
2023-02-05T18:19:14.143Z,61.69
2023-02-05T18:21:42.431Z,61.71
2023-02-05T18:24:10.515Z,61.76
2023-02-05T18:26:38.583Z,61.83
2023-02-05T18:29:06.642Z,62.06
2023-02-05T18:31:35.435Z,61.96
2023-02-05T18:34:03.907Z,61.89
2023-02-05T18:36:31.976Z,61.97
2023-02-05T18:39:00.250Z,62.07
2023-02-05T18:41:28.728Z,62.22
2023-02-05T18:43:57.802Z,64.49
2023-02-05T18:46:25.928Z,66.64
2023-02-05T18:48:54.916Z,66.08
2023-02-05T18:51:23.672Z,65.01
2023-02-05T18:53:52.584Z,63.55
2023-02-05T18:56:26.698Z,62.54
2023-02-05T18:59:03.072Z,61.75
2023-02-05T19:01:32.157Z,59.46
2023-02-05T19:04:02.369Z,56.65
2023-02-05T19:06:30.856Z,55.92
2023-02-05T19:09:00.646Z,56.01
2023-02-05T19:11:30.266Z,56.08
2023-02-05T19:14:00.613Z,56.54
2023-02-05T19:16:32.374Z,56.90
2023-02-05T19:19:00.990Z,57.21
2023-02-05T19:21:30.767Z,57.70
2023-02-05T19:24:05.668Z,58.05
2023-02-05T19:26:37.160Z,58.33
2023-02-05T19:29:08.474Z,58.50
2023-02-05T19:31:37.399Z,58.84
2023-02-05T19:34:06.450Z,59.39
2023-02-05T19:36:34.827Z,59.82
2023-02-05T19:39:06.340Z,60.01
2023-02-05T19:41:36.047Z,60.30
2023-02-05T19:44:07.538Z,60.71
2023-02-05T19:46:42.105Z,60.92
2023-02-05T19:49:16.170Z,61.22
2023-02-05T19:51:46.602Z,61.41
2023-02-05T19:54:15.488Z,61.93
2023-02-05T19:56:44.544Z,62.09
2023-02-05T19:59:13.292Z,64.87
2023-02-05T20:01:44.826Z,67.58
2023-02-05T20:04:18.528Z,65.90
2023-02-05T20:06:48.117Z,64.76
2023-02-05T20:09:17.245Z,64.17
2023-02-05T20:11:47.970Z,63.08
2023-02-05T20:14:17.580Z,62.33
2023-02-05T20:16:45.971Z,61.36
2023-02-05T20:19:16.791Z,59.73
2023-02-05T20:21:46.701Z,56.74
2023-02-05T20:24:16.640Z,56.00
2023-02-05T20:26:48.551Z,56.28
2023-02-05T20:29:35.486Z,56.71
2023-02-05T20:32:04.272Z,57.06
2023-02-05T20:34:35.875Z,57.58
2023-02-05T20:37:07.000Z,58.12
2023-02-05T20:39:39.720Z,58.57
2023-02-05T20:42:10.752Z,59.17
2023-02-05T20:44:39.425Z,59.76
2023-02-05T20:47:11.282Z,60.25
2023-02-05T20:49:41.739Z,60.55
2023-02-05T20:52:10.820Z,60.92
2023-02-05T20:54:39.238Z,61.43
2023-02-05T20:57:08.048Z,61.78
2023-02-05T20:59:37.331Z,62.13
2023-02-05T21:02:05.746Z,64.36
2023-02-05T21:04:34.352Z,66.92
2023-02-05T21:07:02.452Z,66.92
2023-02-05T21:09:30.527Z,66.22
2023-02-05T21:11:58.595Z,65.36
2023-02-05T21:14:26.667Z,64.37
2023-02-05T21:16:54.662Z,63.87
2023-02-05T21:19:24.175Z,63.19
2023-02-05T21:21:53.132Z,62.10
2023-02-05T21:24:21.713Z,61.67
2023-02-05T21:26:50.142Z,61.26
2023-02-05T21:29:20.856Z,59.14
2023-02-05T21:31:53.181Z,55.92
2023-02-05T21:34:27.088Z,55.09
2023-02-05T21:36:56.660Z,55.29
2023-02-05T21:39:26.221Z,55.74
2023-02-05T21:41:55.052Z,56.33
2023-02-05T21:44:24.402Z,56.90
2023-02-05T21:46:54.858Z,57.49
2023-02-05T21:49:23.310Z,58.08
2023-02-05T21:51:53.494Z,58.73
2023-02-05T21:54:25.350Z,59.27
2023-02-05T21:56:54.514Z,59.87
2023-02-05T21:59:23.420Z,60.30
2023-02-05T22:01:51.666Z,60.69
2023-02-05T22:04:20.100Z,61.09
2023-02-05T22:06:48.224Z,61.60
2023-02-05T22:09:17.018Z,63.94
2023-02-05T22:11:45.685Z,67.88
2023-02-05T22:14:13.767Z,69.26
2023-02-05T22:16:42.706Z,67.04
2023-02-05T22:19:11.232Z,63.84
2023-02-05T22:21:42.398Z,61.56
2023-02-05T22:24:15.012Z,58.48
2023-02-05T22:26:44.669Z,55.50
2023-02-05T22:29:15.407Z,55.12
2023-02-05T22:31:45.515Z,55.40
2023-02-05T22:34:13.795Z,55.83
2023-02-05T22:36:42.121Z,56.54
2023-02-05T22:39:10.347Z,57.22
2023-02-05T22:41:41.092Z,57.87
2023-02-05T22:44:11.490Z,58.49
2023-02-05T22:46:42.722Z,58.93
2023-02-05T22:49:13.320Z,59.51
2023-02-05T22:51:42.057Z,59.99
2023-02-05T22:54:12.307Z,60.49
2023-02-05T22:56:42.019Z,61.06
2023-02-05T22:59:10.101Z,61.46
2023-02-05T23:01:39.181Z,62.06
2023-02-05T23:04:09.373Z,66.20
2023-02-05T23:06:40.739Z,71.50
2023-02-05T23:09:13.808Z,72.46
2023-02-05T23:11:42.635Z,70.93
2023-02-05T23:14:12.263Z,68.95
2023-02-05T23:16:43.559Z,65.29
2023-02-05T23:19:16.042Z,61.89
2023-02-05T23:21:44.711Z,57.64
2023-02-05T23:24:13.433Z,50.66
2023-02-05T23:26:45.602Z,48.90
2023-02-05T23:29:15.651Z,49.34
2023-02-05T23:31:44.071Z,49.88
2023-02-05T23:34:12.579Z,50.50
2023-02-05T23:36:41.255Z,51.25
2023-02-05T23:39:09.613Z,51.91
2023-02-05T23:41:37.887Z,52.83
2023-02-05T23:44:13.740Z,53.80
2023-02-05T23:46:43.462Z,54.48
2023-02-05T23:49:12.443Z,55.49
2023-02-05T23:51:40.965Z,56.70
2023-02-05T23:54:11.290Z,57.06
2023-02-05T23:56:40.046Z,57.95
2023-02-05T23:59:09.884Z,58.79
